createdAt,value
2023-02-08T00:00:28.044Z,35.70
2023-02-08T00:03:15.740Z,50.30
2023-02-08T00:05:43.663Z,40.50
2023-02-08T00:08:11.514Z,44.70
2023-02-08T00:10:39.702Z,37.50
2023-02-08T00:13:07.776Z,43.90
2023-02-08T00:15:35.987Z,45.60
2023-02-08T00:18:03.821Z,40.90
2023-02-08T00:20:31.649Z,42.00
2023-02-08T00:22:59.390Z,39.80
2023-02-08T00:25:27.178Z,42.10
2023-02-08T00:27:54.967Z,41.10
2023-02-08T00:30:22.813Z,46.20
2023-02-08T00:32:50.743Z,43.20
2023-02-08T00:35:18.699Z,48.10
2023-02-08T00:37:46.548Z,45.30
2023-02-08T00:40:14.391Z,50.40
2023-02-08T00:42:42.285Z,46.20
2023-02-08T00:45:10.302Z,49.70
2023-02-08T00:47:38.353Z,47.10
2023-02-08T00:50:06.362Z,45.70
2023-02-08T00:52:34.337Z,49.40
2023-02-08T00:55:02.178Z,50.20
2023-02-08T00:57:31.697Z,51.00
2023-02-08T00:59:59.456Z,45.80
2023-02-08T01:02:27.318Z,47.30
2023-02-08T01:04:55.279Z,48.70
2023-02-08T01:07:23.197Z,56.30
2023-02-08T01:09:50.988Z,46.40
2023-02-08T01:12:18.751Z,49.40
2023-02-08T01:14:46.678Z,43.00
2023-02-08T01:17:14.528Z,47.30
2023-02-08T01:19:42.718Z,44.80
2023-02-08T01:22:10.581Z,45.30
2023-02-08T01:24:38.433Z,46.20
2023-02-08T01:27:06.364Z,44.70
2023-02-08T01:29:34.102Z,44.80
2023-02-08T01:32:01.927Z,50.60
2023-02-08T01:34:29.769Z,47.60
2023-02-08T01:36:57.594Z,47.70
2023-02-08T01:39:25.416Z,45.50
2023-02-08T01:41:53.328Z,46.40
2023-02-08T01:44:39.839Z,42.60
2023-02-08T01:47:07.579Z,43.70
2023-02-08T01:49:36.397Z,44.60
2023-02-08T01:52:13.730Z,48.90
2023-02-08T01:54:57.368Z,47.00
2023-02-08T01:57:25.340Z,48.30
2023-02-08T01:59:55.683Z,51.10
2023-02-08T02:02:24.124Z,49.30
2023-02-08T02:04:52.442Z,48.40
2023-02-08T02:07:21.734Z,47.10
2023-02-08T02:09:55.426Z,50.30
2023-02-08T02:12:24.107Z,49.70
2023-02-08T02:14:51.912Z,47.90
2023-02-08T02:17:20.101Z,46.60
2023-02-08T02:19:50.924Z,42.70
2023-02-08T02:22:19.598Z,43.80
2023-02-08T02:24:50.314Z,44.50
2023-02-08T02:27:36.890Z,45.50
2023-02-08T02:30:23.120Z,41.90
2023-02-08T02:32:50.877Z,40.30
2023-02-08T02:35:24.478Z,47.60
2023-02-08T02:37:57.981Z,38.60
2023-02-08T02:40:41.120Z,41.40
2023-02-08T02:43:46.316Z,43.50
2023-02-08T02:46:14.462Z,39.60
2023-02-08T02:48:47.590Z,43.60
2023-02-08T02:51:18.588Z,42.10
2023-02-08T02:53:55.503Z,46.30
2023-02-08T02:56:25.852Z,41.60
2023-02-08T02:58:56.370Z,39.70
2023-02-08T03:01:26.250Z,42.60
2023-02-08T03:03:54.625Z,40.10
2023-02-08T03:06:36.395Z,42.70
2023-02-08T03:09:04.258Z,39.80
2023-02-08T03:11:34.557Z,44.30
2023-02-08T03:14:05.461Z,43.00
2023-02-08T03:16:36.337Z,43.50
2023-02-08T03:19:07.155Z,46.00
2023-02-08T03:21:40.580Z,37.70
2023-02-08T03:24:08.336Z,41.20
2023-02-08T03:26:36.315Z,41.30
2023-02-08T03:29:16.937Z,45.20
2023-02-08T03:31:48.002Z,47.80
2023-02-08T03:34:21.213Z,45.10
2023-02-08T03:36:50.885Z,42.30
2023-02-08T03:39:22.555Z,46.90
2023-02-08T03:41:53.105Z,44.70
2023-02-08T03:44:23.437Z,41.30
2023-02-08T03:46:54.187Z,45.90
2023-02-08T03:49:28.219Z,46.70
2023-02-08T03:51:58.051Z,50.30
2023-02-08T03:54:27.556Z,46.30
2023-02-08T03:57:04.445Z,49.10
2023-02-08T03:59:38.810Z,49.10
2023-02-08T04:02:07.957Z,47.60
2023-02-08T04:04:38.229Z,43.60
2023-02-08T04:07:06.339Z,45.30
2023-02-08T04:09:34.140Z,44.10
2023-02-08T04:12:02.062Z,46.80
2023-02-08T04:14:29.820Z,45.30
2023-02-08T04:16:57.699Z,48.00
2023-02-08T04:19:25.544Z,48.60
2023-02-08T04:21:53.427Z,43.10
2023-02-08T04:24:21.297Z,46.40
2023-02-08T04:26:49.132Z,46.20
2023-02-08T04:29:17.007Z,46.20
2023-02-08T04:31:44.922Z,49.90
2023-02-08T04:34:12.706Z,45.80
2023-02-08T04:36:40.534Z,47.80
2023-02-08T04:39:08.368Z,43.70
2023-02-08T04:41:36.260Z,47.50
2023-02-08T04:44:04.146Z,50.60
2023-02-08T04:46:31.971Z,49.50
2023-02-08T04:49:00.015Z,49.70
2023-02-08T04:51:27.917Z,45.50
2023-02-08T04:53:55.903Z,45.80
2023-02-08T04:56:23.705Z,47.10
2023-02-08T04:58:51.842Z,45.60
2023-02-08T05:01:19.827Z,46.10
2023-02-08T05:03:47.859Z,48.50
2023-02-08T05:06:15.720Z,44.90
2023-02-08T05:08:44.001Z,42.20
2023-02-08T05:11:11.911Z,49.80
2023-02-08T05:13:39.664Z,46.90
2023-02-08T05:16:07.497Z,51.20
2023-02-08T05:18:35.392Z,44.20
2023-02-08T05:21:04.065Z,46.20
2023-02-08T05:23:32.313Z,51.10
2023-02-08T05:26:00.279Z,55.70
2023-02-08T05:28:28.072Z,60.60
2023-02-08T05:30:55.936Z,53.10
2023-02-08T05:33:23.841Z,56.50
2023-02-08T05:35:51.780Z,53.00
2023-02-08T05:38:19.715Z,48.40
2023-02-08T05:40:47.491Z,48.00
2023-02-08T05:43:15.237Z,49.50
2023-02-08T05:45:43.013Z,45.40
2023-02-08T05:48:10.790Z,47.70
2023-02-08T05:50:38.808Z,47.90
2023-02-08T05:53:06.871Z,53.20
2023-02-08T05:55:34.665Z,58.20
2023-02-08T05:58:02.477Z,56.50
2023-02-08T06:00:30.336Z,51.50
2023-02-08T06:02:58.430Z,44.50
2023-02-08T06:05:28.318Z,44.90
2023-02-08T06:07:56.265Z,41.40
2023-02-08T06:10:24.095Z,38.70
2023-02-08T06:12:51.943Z,38.40
2023-02-08T06:15:19.759Z,37.00
2023-02-08T06:17:47.632Z,37.40
2023-02-08T06:20:15.519Z,39.70
2023-02-08T06:22:43.326Z,36.10
2023-02-08T06:25:11.245Z,28.80
2023-02-08T06:27:39.192Z,31.90
2023-02-08T06:30:07.206Z,37.70
2023-02-08T06:32:35.244Z,28.20
2023-02-08T06:35:03.224Z,24.10
2023-02-08T06:37:31.209Z,23.80
2023-02-08T06:40:00.676Z,25.00
2023-02-08T06:42:28.907Z,18.20
2023-02-08T06:44:58.118Z,21.60
2023-02-08T06:47:26.386Z,18.60
2023-02-08T06:49:54.665Z,24.70
2023-02-08T06:52:22.480Z,23.30
2023-02-08T06:54:50.330Z,24.40
2023-02-08T06:57:18.113Z,26.00
2023-02-08T06:59:46.282Z,20.30
2023-02-08T07:02:16.118Z,21.80
2023-02-08T07:04:45.413Z,22.10
2023-02-08T07:07:14.305Z,21.80
2023-02-08T07:09:42.573Z,24.30
2023-02-08T07:12:10.690Z,32.20
2023-02-08T07:14:42.284Z,30.50
2023-02-08T07:17:10.864Z,25.60
2023-02-08T07:19:39.152Z,24.50
2023-02-08T07:22:10.093Z,23.30
2023-02-08T07:24:38.940Z,22.70
2023-02-08T07:27:07.499Z,21.30
2023-02-08T07:29:35.905Z,22.80
2023-02-08T07:32:04.319Z,22.30
2023-02-08T07:34:34.781Z,20.50
2023-02-08T07:37:02.873Z,25.50
2023-02-08T07:39:31.474Z,42.80
2023-02-08T07:41:59.621Z,47.70
2023-02-08T07:44:27.598Z,33.80
2023-02-08T07:46:55.379Z,27.50
2023-02-08T07:49:23.213Z,26.80
2023-02-08T07:51:51.023Z,21.70
2023-02-08T07:54:18.815Z,22.20
2023-02-08T07:56:46.596Z,18.50
2023-02-08T07:59:14.900Z,15.10
2023-02-08T08:01:42.811Z,16.40
2023-02-08T08:04:10.817Z,17.60
2023-02-08T08:06:39.400Z,20.80
2023-02-08T08:09:07.227Z,23.60
2023-02-08T08:11:35.109Z,32.10
2023-02-08T08:14:03.028Z,24.20
2023-02-08T08:16:30.878Z,24.00
2023-02-08T08:18:58.674Z,21.10
2023-02-08T08:21:26.533Z,23.00
2023-02-08T08:23:55.548Z,36.80
2023-02-08T08:26:23.434Z,23.20
2023-02-08T08:28:51.241Z,21.00
2023-02-08T08:31:20.367Z,17.90
2023-02-08T08:33:49.360Z,17.80
2023-02-08T08:36:17.446Z,17.80
2023-02-08T08:38:45.300Z,19.50
2023-02-08T08:41:18.211Z,19.40
2023-02-08T08:43:46.707Z,27.20
2023-02-08T08:46:16.566Z,18.90
2023-02-08T08:50:19.707Z,20.80
2023-02-08T08:52:47.525Z,19.30
2023-02-08T08:55:15.460Z,19.00
2023-02-08T08:57:43.300Z,17.70
2023-02-08T09:00:11.755Z,17.80
2023-02-08T09:02:39.617Z,18.00
2023-02-08T09:05:08.389Z,18.90
2023-02-08T09:07:36.474Z,19.00
2023-02-08T09:10:04.626Z,17.10
2023-02-08T09:12:32.674Z,17.00
2023-02-08T09:15:00.521Z,16.30
2023-02-08T09:17:28.368Z,17.60
2023-02-08T09:19:56.359Z,15.40
2023-02-08T09:22:24.880Z,14.20
2023-02-08T09:24:54.072Z,12.90
2023-02-08T09:27:21.981Z,15.50
2023-02-08T09:29:49.803Z,14.60
2023-02-08T09:32:17.779Z,17.10
2023-02-08T09:34:45.538Z,16.00
2023-02-08T09:37:13.554Z,17.70
2023-02-08T09:39:41.458Z,18.00
2023-02-08T09:42:21.840Z,17.00
2023-02-08T09:45:08.789Z,16.60
2023-02-08T09:47:37.376Z,17.20
2023-02-08T09:50:13.257Z,19.70
2023-02-08T09:52:58.576Z,16.60
2023-02-08T09:55:32.678Z,17.40
2023-02-08T09:58:03.562Z,14.40
2023-02-08T10:00:35.295Z,13.50
2023-02-08T10:03:03.503Z,15.10
2023-02-08T10:05:32.555Z,13.00
2023-02-08T10:08:00.898Z,13.20
2023-02-08T10:10:49.803Z,13.90
2023-02-08T10:13:41.087Z,13.70
2023-02-08T10:16:39.469Z,14.90
2023-02-08T10:19:16.171Z,13.80
2023-02-08T10:21:51.910Z,18.10
2023-02-08T10:24:22.713Z,17.10
2023-02-08T10:26:53.635Z,15.30
2023-02-08T10:29:36.283Z,17.40
2023-02-08T10:32:04.194Z,16.10
2023-02-08T10:34:32.479Z,15.00
2023-02-08T10:37:03.241Z,17.40
2023-02-08T10:39:34.768Z,16.70
2023-02-08T10:42:04.754Z,15.40
2023-02-08T10:44:46.905Z,15.50
2023-02-08T10:47:34.960Z,16.70
2023-02-08T10:50:03.642Z,14.40
2023-02-08T10:52:31.512Z,12.40
2023-02-08T10:54:59.814Z,12.40
2023-02-08T10:57:30.847Z,14.70
2023-02-08T11:00:02.877Z,14.60
2023-02-08T11:02:35.384Z,16.70
2023-02-08T11:05:06.048Z,16.70
2023-02-08T11:07:36.475Z,15.50
2023-02-08T11:10:25.193Z,15.70
2023-02-08T11:12:57.734Z,13.40
2023-02-08T11:15:37.904Z,11.80
2023-02-08T11:18:08.208Z,16.00
2023-02-08T11:20:39.220Z,15.00
2023-02-08T11:23:24.761Z,18.50
2023-02-08T11:25:53.335Z,18.20
2023-02-08T11:28:23.056Z,17.20
2023-02-08T11:30:55.544Z,17.40
2023-02-08T11:33:23.625Z,17.80
2023-02-08T11:35:56.244Z,20.40
2023-02-08T11:38:27.605Z,20.80
2023-02-08T11:40:57.294Z,18.60
2023-02-08T11:43:27.360Z,20.90
2023-02-08T11:45:56.325Z,19.80
2023-02-08T11:48:25.806Z,21.80
2023-02-08T11:50:55.655Z,22.40
2023-02-08T11:53:36.718Z,23.90
2023-02-08T11:56:06.842Z,25.00
2023-02-08T11:58:35.096Z,24.80
2023-02-08T12:01:21.664Z,23.50
2023-02-08T12:03:50.914Z,26.20
2023-02-08T12:06:28.014Z,24.30
2023-02-08T12:08:55.812Z,27.00
2023-02-08T12:11:23.886Z,30.10
2023-02-08T12:13:57.870Z,31.30
2023-02-08T12:16:36.967Z,29.80
2023-02-08T12:19:04.742Z,25.30
2023-02-08T12:21:53.517Z,24.90
2023-02-08T12:24:40.339Z,27.20
2023-02-08T12:27:16.945Z,24.90
2023-02-08T12:29:48.151Z,24.50
2023-02-08T12:39:26.012Z,25.30
2023-02-08T12:42:12.984Z,28.40
2023-02-08T12:45:07.186Z,24.40
2023-02-08T12:48:03.813Z,27.30
2023-02-08T12:50:51.021Z,26.30
2023-02-08T12:53:31.162Z,30.50
2023-02-08T12:56:02.198Z,29.90
2023-02-08T12:58:31.310Z,27.30
2023-02-08T13:01:02.467Z,31.30
2023-02-08T13:03:51.465Z,29.50
2023-02-08T13:06:25.446Z,34.20
2023-02-08T13:08:57.714Z,34.10
2023-02-08T13:11:28.635Z,34.50
2023-02-08T13:14:15.356Z,35.90
2023-02-08T13:16:45.897Z,36.40
2023-02-08T13:19:16.941Z,35.30
2023-02-08T13:21:46.003Z,42.20
2023-02-08T13:24:22.989Z,40.70
2023-02-08T13:26:50.985Z,45.90
2023-02-08T13:29:20.416Z,44.80
2023-02-08T13:31:51.908Z,43.60
2023-02-08T13:34:28.189Z,43.00
2023-02-08T13:36:59.759Z,37.50
2023-02-08T13:39:42.386Z,41.00
2023-02-08T13:42:21.555Z,38.20
2023-02-08T13:44:53.335Z,41.40
2023-02-08T13:47:27.251Z,41.00
2023-02-08T13:50:05.053Z,38.60
2023-02-08T13:52:46.327Z,36.80
2023-02-08T13:55:36.224Z,40.50
2023-02-08T13:58:13.520Z,43.30
2023-02-08T14:00:53.911Z,44.70
2023-02-08T14:03:21.780Z,48.20
2023-02-08T14:05:59.813Z,50.70
2023-02-08T14:08:30.700Z,44.60
2023-02-08T14:11:04.864Z,44.90
2023-02-08T14:13:34.890Z,49.20
2023-02-08T14:16:21.274Z,40.80
2023-02-08T14:18:53.395Z,35.10
2023-02-08T14:21:37.218Z,36.20
2023-02-08T14:24:07.847Z,42.70
2023-02-08T14:26:36.666Z,38.40
2023-02-08T14:29:06.563Z,37.10
2023-02-08T14:31:39.905Z,36.80
2023-02-08T14:34:20.562Z,41.00
2023-02-08T14:36:58.006Z,41.70
2023-02-08T14:39:30.086Z,41.30
2023-02-08T14:42:01.280Z,35.40
2023-02-08T14:44:38.549Z,41.30
2023-02-08T14:47:18.576Z,37.10
2023-02-08T14:49:47.469Z,37.70
2023-02-08T14:52:24.079Z,38.90
2023-02-08T14:55:11.551Z,35.80
2023-02-08T14:57:41.057Z,39.70
2023-02-08T15:00:17.419Z,37.60
2023-02-08T15:02:45.873Z,36.80
2023-02-08T15:05:27.183Z,39.20
2023-02-08T15:07:59.071Z,45.70
2023-02-08T15:10:28.756Z,47.40
2023-02-08T15:12:58.084Z,51.70
2023-02-08T15:15:31.647Z,47.00
2023-02-08T15:18:02.402Z,39.30
2023-02-08T15:20:31.711Z,37.00
2023-02-08T15:23:01.449Z,34.90
2023-02-08T15:25:33.679Z,32.80
2023-02-08T15:28:03.215Z,36.60
2023-02-08T15:30:36.067Z,34.40
2023-02-08T15:33:09.185Z,36.10
2023-02-08T15:35:37.073Z,38.10
2023-02-08T15:38:05.608Z,36.10
2023-02-08T15:40:34.540Z,40.30
2023-02-08T15:43:04.121Z,39.70
2023-02-08T15:45:32.131Z,42.60
2023-02-08T15:48:00.821Z,38.60
2023-02-08T15:50:29.377Z,36.80
2023-02-08T15:53:01.232Z,38.00
2023-02-08T15:55:32.997Z,48.10
2023-02-08T15:58:02.495Z,83.10
2023-02-08T16:00:35.736Z,87.70
2023-02-08T16:03:08.523Z,93.40
2023-02-08T16:05:36.775Z,92.60
2023-02-08T16:08:05.208Z,78.60
2023-02-08T16:10:46.900Z,59.80
2023-02-08T16:13:18.026Z,46.00
2023-02-08T16:15:47.284Z,47.20
2023-02-08T16:18:32.442Z,47.20
2023-02-08T16:21:01.179Z,42.80
2023-02-08T16:23:33.701Z,43.30
2023-02-08T16:26:12.703Z,48.00
2023-02-08T16:28:40.556Z,49.20
2023-02-08T16:31:08.498Z,47.00
2023-02-08T16:33:38.191Z,49.10
2023-02-08T16:36:19.665Z,51.30
2023-02-08T16:39:07.511Z,51.20
2023-02-08T16:42:00.938Z,57.40
2023-02-08T16:44:35.808Z,120.30
2023-02-08T16:47:23.645Z,98.30
2023-02-08T16:49:51.583Z,70.10
2023-02-08T16:52:19.637Z,56.70
2023-02-08T16:54:47.514Z,50.90
2023-02-08T16:57:15.394Z,54.60
2023-02-08T16:59:43.421Z,69.40
2023-02-08T17:02:12.714Z,103.30
2023-02-08T17:04:40.803Z,79.90
2023-02-08T17:07:18.462Z,78.50
2023-02-08T17:09:46.389Z,74.40
2023-02-08T17:12:22.844Z,104.00
2023-02-08T17:14:50.967Z,131.30
2023-02-08T17:17:20.125Z,132.40
2023-02-08T17:19:48.119Z,103.10
2023-02-08T17:22:16.113Z,103.00
2023-02-08T17:24:44.092Z,110.30
2023-02-08T17:27:13.898Z,107.00
2023-02-08T17:29:42.228Z,91.40
2023-02-08T17:32:12.352Z,106.80
2023-02-08T17:34:41.028Z,123.30
2023-02-08T17:37:09.121Z,128.90
2023-02-08T17:39:40.056Z,124.20
2023-02-08T17:42:08.061Z,122.50
2023-02-08T17:44:36.120Z,100.10
2023-02-08T17:47:05.976Z,73.90
2023-02-08T17:49:38.900Z,112.40
2023-02-08T17:52:09.326Z,561.90
2023-02-08T17:54:37.643Z,527.10
2023-02-08T17:57:05.504Z,439.40
2023-02-08T17:59:33.465Z,398.40
2023-02-08T18:02:01.664Z,423.40
2023-02-08T18:04:30.244Z,369.50
2023-02-08T18:06:58.281Z,297.20
2023-02-08T18:09:26.116Z,272.30
2023-02-08T18:11:54.366Z,162.70
2023-02-08T18:14:22.178Z,134.30
2023-02-08T18:16:51.251Z,120.70
2023-02-08T18:19:19.778Z,106.50
2023-02-08T18:21:47.735Z,90.40
2023-02-08T18:24:15.588Z,66.50
2023-02-08T18:26:43.436Z,69.60
2023-02-08T18:29:11.319Z,63.40
2023-02-08T18:31:39.820Z,65.60
2023-02-08T18:34:07.854Z,159.40
2023-02-08T18:36:35.842Z,189.90
2023-02-08T18:39:04.602Z,186.70
2023-02-08T18:41:32.572Z,182.70
2023-02-08T18:44:00.464Z,131.30
2023-02-08T18:46:28.670Z,86.90
2023-02-08T18:48:56.664Z,86.90
2023-02-08T18:51:28.468Z,82.90
2023-02-08T18:53:58.192Z,88.40
2023-02-08T18:56:27.709Z,89.60
2023-02-08T18:58:59.932Z,109.50
2023-02-08T19:01:30.690Z,108.70
2023-02-08T19:03:58.916Z,78.50
2023-02-08T19:06:28.654Z,69.30
2023-02-08T19:08:56.666Z,66.20
2023-02-08T19:11:25.925Z,64.20
2023-02-08T19:13:56.143Z,61.90
2023-02-08T19:16:24.798Z,70.30
2023-02-08T19:19:02.164Z,59.70
2023-02-08T19:21:30.595Z,63.60
2023-02-08T19:24:00.666Z,58.40
2023-02-08T19:26:30.531Z,67.70
2023-02-08T19:28:59.579Z,66.60
2023-02-08T19:31:28.963Z,71.20
2023-02-08T19:33:58.760Z,69.70
2023-02-08T19:36:28.624Z,71.20
2023-02-08T19:38:57.243Z,73.40
2023-02-08T19:41:28.209Z,69.00
2023-02-08T19:43:56.205Z,73.80
2023-02-08T19:46:25.612Z,72.20
2023-02-08T19:48:55.303Z,74.40
2023-02-08T19:51:23.203Z,78.30
2023-02-08T19:53:51.052Z,78.70
2023-02-08T19:56:19.285Z,76.70
2023-02-08T19:58:47.599Z,71.60
2023-02-08T20:01:20.326Z,71.50
2023-02-08T20:03:48.977Z,75.60
2023-02-08T20:06:18.457Z,74.10
2023-02-08T20:08:46.654Z,78.30
2023-02-08T20:11:18.923Z,82.50
2023-02-08T20:13:47.057Z,91.50
2023-02-08T20:16:15.226Z,78.30
2023-02-08T20:18:43.042Z,72.00
2023-02-08T20:21:10.934Z,69.10
2023-02-08T20:23:38.980Z,68.10
2023-02-08T20:26:12.245Z,69.10
2023-02-08T20:28:41.944Z,77.70
2023-02-08T20:31:17.817Z,75.00
2023-02-08T20:33:46.339Z,76.90
2023-02-08T20:36:18.507Z,83.50
2023-02-08T20:38:46.791Z,76.50
2023-02-08T20:41:15.376Z,79.90
2023-02-08T20:43:43.868Z,91.00
2023-02-08T20:46:16.674Z,87.10
2023-02-08T20:48:44.597Z,82.60
2023-02-08T20:51:13.753Z,80.20
2023-02-08T20:53:42.866Z,74.10
2023-02-08T20:56:11.703Z,73.80
2023-02-08T20:58:39.486Z,78.70
2023-02-08T21:01:08.553Z,75.60
2023-02-08T21:03:36.569Z,76.60
2023-02-08T21:06:14.054Z,74.20
2023-02-08T21:08:42.218Z,79.60
2023-02-08T21:11:10.741Z,78.50
2023-02-08T21:13:38.836Z,77.00
2023-02-08T21:16:09.635Z,86.30
2023-02-08T21:18:37.687Z,93.00
2023-02-08T21:21:06.482Z,94.20
2023-02-08T21:23:34.925Z,94.80
2023-02-08T21:26:04.306Z,97.90
2023-02-08T21:28:32.808Z,76.10
2023-02-08T21:31:02.253Z,84.90
2023-02-08T21:33:30.845Z,92.10
2023-02-08T21:36:02.613Z,86.30
2023-02-08T21:38:30.791Z,81.50
2023-02-08T21:40:58.563Z,80.10
2023-02-08T21:43:26.335Z,78.10
2023-02-08T21:45:54.117Z,87.50
2023-02-08T21:48:24.264Z,83.30
2023-02-08T21:51:10.705Z,76.50
2023-02-08T21:53:57.485Z,83.30
2023-02-08T21:56:25.831Z,89.60
2023-02-08T21:58:53.636Z,91.10
2023-02-08T22:01:21.549Z,99.80
2023-02-08T22:03:49.481Z,103.50
2023-02-08T22:06:17.469Z,104.50
2023-02-08T22:08:45.231Z,113.50
2023-02-08T22:11:14.006Z,105.70
2023-02-08T22:13:43.086Z,104.70
2023-02-08T22:16:20.207Z,100.60
2023-02-08T22:18:48.131Z,109.60
2023-02-08T22:21:16.100Z,101.40
2023-02-08T22:23:44.179Z,100.70
2023-02-08T22:26:13.267Z,98.50
2023-02-08T22:28:43.464Z,90.00
2023-02-08T22:31:13.089Z,83.90
2023-02-08T22:33:41.307Z,86.60
2023-02-08T22:36:10.994Z,92.20
2023-02-08T22:38:40.202Z,99.20
2023-02-08T22:41:15.464Z,97.80
2023-02-08T22:43:43.467Z,100.10
2023-02-08T22:46:11.447Z,90.00
2023-02-08T22:48:39.520Z,84.10
2023-02-08T22:51:15.035Z,75.10
2023-02-08T22:53:43.511Z,88.60
2023-02-08T22:56:13.732Z,78.40
2023-02-08T22:58:41.579Z,87.40
2023-02-08T23:01:16.961Z,92.10
2023-02-08T23:03:45.113Z,83.50
2023-02-08T23:06:15.338Z,89.50
2023-02-08T23:08:43.169Z,93.70
2023-02-08T23:11:12.362Z,93.60
2023-02-08T23:13:40.226Z,95.70
2023-02-08T23:16:16.916Z,104.00
2023-02-08T23:18:44.801Z,97.70
2023-02-08T23:21:14.464Z,98.50
2023-02-08T23:23:42.893Z,90.70
2023-02-08T23:26:11.783Z,115.40
2023-02-08T23:28:39.656Z,145.30
2023-02-08T23:31:10.354Z,143.60
2023-02-08T23:33:39.061Z,151.30
2023-02-08T23:36:07.845Z,154.00
2023-02-08T23:38:36.367Z,169.50
2023-02-08T23:43:57.695Z,168.30
2023-02-08T23:46:27.260Z,156.40
2023-02-08T23:48:55.858Z,145.70
2023-02-08T23:51:29.154Z,163.50
2023-02-08T23:53:58.294Z,185.10
2023-02-08T23:56:27.949Z,214.70
2023-02-08T23:58:57.927Z,244.30
